Terminal Aerodrome Forecast
Issued by NWS Mt. Holly, NJ

Home | Current Version | Previous Version | Text Only | Print | Product List | Glossary On
Versions: 1 2 3 4 5 6 7 8 9 10 11 12 13 14 15 16 17 18 19
774
FTUS41 KPHI 130702 AAA
TAFACY
TAF AMD
KACY 130702Z 1307/1406 27004KT P6SM BKN040 OVC090
      TEMPO 1307/1309 6SM -SHSN
     FM131100 30015G22KT P6SM BKN070 OVC090
      TEMPO 1311/1313 6SM -SHSN
     FM131400 31020G30KT P6SM BKN070 OVC090
     FM131600 31024G35KT P6SM BKN050
     FM140000 31016G25KT P6SM SCT050=

USA.gov is the U.S. government's official web portal to all federal, state and local government web resources and services.